sensor_id;sensor_type;location;lat;lon;timestamp;temperature;humidity
22161;DHT22;49035;48.812;11.762;2022-08-25T00:02:05;13.70;99.90
22161;DHT22;49035;48.812;11.762;2022-08-25T00:04:31;13.70;99.90
22161;DHT22;49035;48.812;11.762;2022-08-25T00:06:57;13.70;99.90
22161;DHT22;49035;48.812;11.762;2022-08-25T00:09:25;13.70;99.90
22161;DHT22;49035;48.812;11.762;2022-08-25T00:11:52;13.70;99.90
22161;DHT22;49035;48.812;11.762;2022-08-25T00:14:27;13.70;99.90
22161;DHT22;49035;48.812;11.762;2022-08-25T00:16:53;13.60;99.90
22161;DHT22;49035;48.812;11.762;2022-08-25T00:19:22;13.60;99.90
22161;DHT22;49035;48.812;11.762;2022-08-25T00:21:48;13.60;99.90
22161;DHT22;49035;48.812;11.762;2022-08-25T00:24:15;13.50;99.90
22161;DHT22;49035;48.812;11.762;2022-08-25T00:26:44;13.40;99.90
22161;DHT22;49035;48.812;11.762;2022-08-25T00:29:11;13.40;99.90
22161;DHT22;49035;48.812;11.762;2022-08-25T00:31:38;13.30;99.90
22161;DHT22;49035;48.812;11.762;2022-08-25T00:34:06;13.30;99.90
22161;DHT22;49035;48.812;11.762;2022-08-25T00:36:32;13.30;99.90
22161;DHT22;49035;48.812;11.762;2022-08-25T00:38:58;13.40;99.90
22161;DHT22;49035;48.812;11.762;2022-08-25T00:41:24;13.30;99.90
22161;DHT22;49035;48.812;11.762;2022-08-25T00:44:00;13.30;99.90
22161;DHT22;49035;48.812;11.762;2022-08-25T00:46:35;13.30;99.90
22161;DHT22;49035;48.812;11.762;2022-08-25T00:49:07;13.30;99.90
22161;DHT22;49035;48.812;11.762;2022-08-25T00:51:36;13.30;99.90
22161;DHT22;49035;48.812;11.762;2022-08-25T00:54:04;13.30;99.90
22161;DHT22;49035;48.812;11.762;2022-08-25T00:56:32;13.30;99.90
22161;DHT22;49035;48.812;11.762;2022-08-25T00:58:59;13.30;99.90
22161;DHT22;49035;48.812;11.762;2022-08-25T01:01:27;13.20;99.90
22161;DHT22;49035;48.812;11.762;2022-08-25T01:03:52;13.20;99.90
22161;DHT22;49035;48.812;11.762;2022-08-25T01:06:18;13.20;99.90
22161;DHT22;49035;48.812;11.762;2022-08-25T01:08:44;13.20;99.90
22161;DHT22;49035;48.812;11.762;2022-08-25T01:11:10;13.20;99.90
22161;DHT22;49035;48.812;11.762;2022-08-25T01:13:52;13.20;99.90
22161;DHT22;49035;48.812;11.762;2022-08-25T01:16:18;13.20;99.90
22161;DHT22;49035;48.812;11.762;2022-08-25T01:18:45;13.20;99.90
22161;DHT22;49035;48.812;11.762;2022-08-25T01:21:12;13.20;99.90
22161;DHT22;49035;48.812;11.762;2022-08-25T01:23:38;13.20;99.90
22161;DHT22;49035;48.812;11.762;2022-08-25T01:26:14;13.10;99.90
22161;DHT22;49035;48.812;11.762;2022-08-25T01:28:41;13.20;99.90
22161;DHT22;49035;48.812;11.762;2022-08-25T01:31:28;13.20;99.90
22161;DHT22;49035;48.812;11.762;2022-08-25T01:33:55;13.40;99.90
22161;DHT22;49035;48.812;11.762;2022-08-25T01:36:21;13.50;99.90
22161;DHT22;49035;48.812;11.762;2022-08-25T01:38:47;13.50;99.90
22161;DHT22;49035;48.812;11.762;2022-08-25T01:41:16;13.40;99.90
22161;DHT22;49035;48.812;11.762;2022-08-25T01:43:46;13.30;99.90
22161;DHT22;49035;48.812;11.762;2022-08-25T01:46:11;13.20;99.90
22161;DHT22;49035;48.812;11.762;2022-08-25T01:48:37;13.10;99.90
22161;DHT22;49035;48.812;11.762;2022-08-25T01:51:03;13.00;99.90
22161;DHT22;49035;48.812;11.762;2022-08-25T01:53:30;13.00;99.90
22161;DHT22;49035;48.812;11.762;2022-08-25T01:55:56;12.90;99.90
22161;DHT22;49035;48.812;11.762;2022-08-25T01:58:35;13.00;99.90
22161;DHT22;49035;48.812;11.762;2022-08-25T02:01:03;13.10;99.90
22161;DHT22;49035;48.812;11.762;2022-08-25T02:03:40;13.20;99.90
22161;DHT22;49035;48.812;11.762;2022-08-25T02:06:06;13.20;99.90
22161;DHT22;49035;48.812;11.762;2022-08-25T02:08:32;13.00;99.90
22161;DHT22;49035;48.812;11.762;2022-08-25T02:10:57;13.00;99.90
22161;DHT22;49035;48.812;11.762;2022-08-25T02:13:23;13.10;99.90
22161;DHT22;49035;48.812;11.762;2022-08-25T02:15:51;13.00;99.90
22161;DHT22;49035;48.812;11.762;2022-08-25T02:18:18;13.00;99.90
22161;DHT22;49035;48.812;11.762;2022-08-25T02:20:44;13.00;99.90
22161;DHT22;49035;48.812;11.762;2022-08-25T02:23:10;12.90;99.90
22161;DHT22;49035;48.812;11.762;2022-08-25T02:25:37;12.80;99.90
22161;DHT22;49035;48.812;11.762;2022-08-25T02:28:03;12.80;99.90
22161;DHT22;49035;48.812;11.762;2022-08-25T02:30:29;12.70;99.90
22161;DHT22;49035;48.812;11.762;2022-08-25T02:32:55;12.70;99.90
22161;DHT22;49035;48.812;11.762;2022-08-25T02:35:21;12.70;99.90
22161;DHT22;49035;48.812;11.762;2022-08-25T02:37:46;12.70;99.90
22161;DHT22;49035;48.812;11.762;2022-08-25T02:40:12;12.80;99.90
22161;DHT22;49035;48.812;11.762;2022-08-25T02:42:37;12.80;99.90
22161;DHT22;49035;48.812;11.762;2022-08-25T02:45:04;12.80;99.90
22161;DHT22;49035;48.812;11.762;2022-08-25T02:47:31;12.80;99.90
22161;DHT22;49035;48.812;11.762;2022-08-25T02:49:57;12.80;99.90
22161;DHT22;49035;48.812;11.762;2022-08-25T02:52:23;12.80;99.90
22161;DHT22;49035;48.812;11.762;2022-08-25T02:54:49;12.70;99.90
22161;DHT22;49035;48.812;11.762;2022-08-25T02:57:15;12.70;99.90
22161;DHT22;49035;48.812;11.762;2022-08-25T02:59:42;12.60;99.90
22161;DHT22;49035;48.812;11.762;2022-08-25T03:02:11;12.60;99.90
22161;DHT22;49035;48.812;11.762;2022-08-25T03:04:37;12.60;99.90
22161;DHT22;49035;48.812;11.762;2022-08-25T03:07:02;12.50;99.90
22161;DHT22;49035;48.812;11.762;2022-08-25T03:09:29;12.40;99.90
22161;DHT22;49035;48.812;11.762;2022-08-25T03:11:55;12.50;99.90
22161;DHT22;49035;48.812;11.762;2022-08-25T03:14:21;12.40;99.90
22161;DHT22;49035;48.812;11.762;2022-08-25T03:16:46;12.40;99.90
22161;DHT22;49035;48.812;11.762;2022-08-25T03:19:12;12.40;99.90
22161;DHT22;49035;48.812;11.762;2022-08-25T03:21:38;12.40;99.90
22161;DHT22;49035;48.812;11.762;2022-08-25T03:24:04;12.40;99.90
22161;DHT22;49035;48.812;11.762;2022-08-25T03:26:30;12.40;99.90
22161;DHT22;49035;48.812;11.762;2022-08-25T03:29:14;12.40;99.90
22161;DHT22;49035;48.812;11.762;2022-08-25T03:31:40;12.40;99.90
22161;DHT22;49035;48.812;11.762;2022-08-25T03:34:09;12.40;99.90
22161;DHT22;49035;48.812;11.762;2022-08-25T03:36:36;12.40;99.90
22161;DHT22;49035;48.812;11.762;2022-08-25T03:39:03;12.40;99.90
22161;DHT22;49035;48.812;11.762;2022-08-25T03:41:31;12.30;99.90
22161;DHT22;49035;48.812;11.762;2022-08-25T03:43:58;12.30;99.90
22161;DHT22;49035;48.812;11.762;2022-08-25T03:46:26;12.30;99.90
22161;DHT22;49035;48.812;11.762;2022-08-25T03:48:53;12.30;99.90
22161;DHT22;49035;48.812;11.762;2022-08-25T03:51:24;12.20;99.90
22161;DHT22;49035;48.812;11.762;2022-08-25T03:53:51;12.20;99.90
22161;DHT22;49035;48.812;11.762;2022-08-25T03:56:17;12.20;99.90
22161;DHT22;49035;48.812;11.762;2022-08-25T03:58:42;12.30;99.90
22161;DHT22;49035;48.812;11.762;2022-08-25T04:01:09;12.30;99.90
22161;DHT22;49035;48.812;11.762;2022-08-25T04:03:35;12.30;99.90
22161;DHT22;49035;48.812;11.762;2022-08-25T04:06:02;12.40;99.90
22161;DHT22;49035;48.812;11.762;2022-08-25T04:08:28;12.30;99.90
22161;DHT22;49035;48.812;11.762;2022-08-25T04:10:53;12.20;99.90
22161;DHT22;49035;48.812;11.762;2022-08-25T04:13:19;12.20;99.90
22161;DHT22;49035;48.812;11.762;2022-08-25T04:15:45;12.10;99.90
22161;DHT22;49035;48.812;11.762;2022-08-25T04:18:11;12.20;99.90
22161;DHT22;49035;48.812;11.762;2022-08-25T04:20:38;12.20;99.90
22161;DHT22;49035;48.812;11.762;2022-08-25T04:23:04;12.20;99.90
22161;DHT22;49035;48.812;11.762;2022-08-25T04:25:30;12.30;99.90
22161;DHT22;49035;48.812;11.762;2022-08-25T04:27:55;12.30;99.90
22161;DHT22;49035;48.812;11.762;2022-08-25T04:30:22;12.30;99.90
22161;DHT22;49035;48.812;11.762;2022-08-25T04:32:48;12.30;99.90
22161;DHT22;49035;48.812;11.762;2022-08-25T04:35:14;12.30;99.90
22161;DHT22;49035;48.812;11.762;2022-08-25T04:37:39;12.30;99.90
22161;DHT22;49035;48.812;11.762;2022-08-25T04:40:06;12.30;99.90
22161;DHT22;49035;48.812;11.762;2022-08-25T04:42:32;12.30;99.90
22161;DHT22;49035;48.812;11.762;2022-08-25T04:44:58;12.40;99.90
22161;DHT22;49035;48.812;11.762;2022-08-25T04:47:26;12.50;99.90
22161;DHT22;49035;48.812;11.762;2022-08-25T04:49:52;12.40;99.90
22161;DHT22;49035;48.812;11.762;2022-08-25T04:52:17;12.50;99.90
22161;DHT22;49035;48.812;11.762;2022-08-25T04:54:43;12.50;99.90
22161;DHT22;49035;48.812;11.762;2022-08-25T04:57:10;12.70;99.90
22161;DHT22;49035;48.812;11.762;2022-08-25T04:59:36;12.70;99.90
22161;DHT22;49035;48.812;11.762;2022-08-25T05:02:02;12.80;99.90
22161;DHT22;49035;48.812;11.762;2022-08-25T05:04:30;13.00;99.90
22161;DHT22;49035;48.812;11.762;2022-08-25T05:06:57;13.10;99.90
22161;DHT22;49035;48.812;11.762;2022-08-25T05:09:23;13.20;99.90
22161;DHT22;49035;48.812;11.762;2022-08-25T05:11:48;13.20;99.90
22161;DHT22;49035;48.812;11.762;2022-08-25T05:14:14;13.40;99.90
22161;DHT22;49035;48.812;11.762;2022-08-25T05:16:42;13.40;99.90
22161;DHT22;49035;48.812;11.762;2022-08-25T05:19:08;13.60;99.90
22161;DHT22;49035;48.812;11.762;2022-08-25T05:21:34;13.70;99.90
22161;DHT22;49035;48.812;11.762;2022-08-25T05:24:00;13.90;99.90
22161;DHT22;49035;48.812;11.762;2022-08-25T05:26:28;14.10;99.90
22161;DHT22;49035;48.812;11.762;2022-08-25T05:28:55;14.30;99.90
22161;DHT22;49035;48.812;11.762;2022-08-25T05:31:22;14.40;99.90
22161;DHT22;49035;48.812;11.762;2022-08-25T05:33:49;14.60;99.90
22161;DHT22;49035;48.812;11.762;2022-08-25T05:36:16;14.80;99.90
22161;DHT22;49035;48.812;11.762;2022-08-25T05:38:41;15.30;99.90
22161;DHT22;49035;48.812;11.762;2022-08-25T05:41:11;16.00;99.90
22161;DHT22;49035;48.812;11.762;2022-08-25T05:43:39;16.60;99.90
22161;DHT22;49035;48.812;11.762;2022-08-25T05:46:05;17.10;99.90
22161;DHT22;49035;48.812;11.762;2022-08-25T05:48:30;17.50;99.90
22161;DHT22;49035;48.812;11.762;2022-08-25T05:50:59;17.90;99.90
22161;DHT22;49035;48.812;11.762;2022-08-25T05:53:27;18.00;99.90
22161;DHT22;49035;48.812;11.762;2022-08-25T05:55:54;18.20;99.90
22161;DHT22;49035;48.812;11.762;2022-08-25T05:58:21;18.50;99.90
22161;DHT22;49035;48.812;11.762;2022-08-25T06:00:47;18.60;99.90
22161;DHT22;49035;48.812;11.762;2022-08-25T06:03:13;18.90;99.90
22161;DHT22;49035;48.812;11.762;2022-08-25T06:05:39;19.30;99.90
22161;DHT22;49035;48.812;11.762;2022-08-25T06:08:05;19.30;99.90
22161;DHT22;49035;48.812;11.762;2022-08-25T06:10:31;19.70;99.90
22161;DHT22;49035;48.812;11.762;2022-08-25T06:12:57;19.90;99.90
22161;DHT22;49035;48.812;11.762;2022-08-25T06:15:23;20.00;99.90
22161;DHT22;49035;48.812;11.762;2022-08-25T06:17:49;20.30;99.90
22161;DHT22;49035;48.812;11.762;2022-08-25T06:20:26;20.40;99.90
22161;DHT22;49035;48.812;11.762;2022-08-25T06:22:53;20.80;99.90
22161;DHT22;49035;48.812;11.762;2022-08-25T06:25:20;21.00;99.90
22161;DHT22;49035;48.812;11.762;2022-08-25T06:27:47;21.60;99.90
22161;DHT22;49035;48.812;11.762;2022-08-25T06:30:15;21.80;99.90
22161;DHT22;49035;48.812;11.762;2022-08-25T06:32:42;22.00;99.90
22161;DHT22;49035;48.812;11.762;2022-08-25T06:35:12;21.90;99.90
22161;DHT22;49035;48.812;11.762;2022-08-25T06:37:38;21.80;99.90
22161;DHT22;49035;48.812;11.762;2022-08-25T06:40:06;21.90;99.90
22161;DHT22;49035;48.812;11.762;2022-08-25T06:42:32;22.20;99.90
22161;DHT22;49035;48.812;11.762;2022-08-25T06:44:59;22.60;99.90
22161;DHT22;49035;48.812;11.762;2022-08-25T06:47:25;22.00;99.90
22161;DHT22;49035;48.812;11.762;2022-08-25T06:49:51;21.80;99.90
22161;DHT22;49035;48.812;11.762;2022-08-25T06:52:16;21.80;99.90
22161;DHT22;49035;48.812;11.762;2022-08-25T06:54:42;22.00;99.90
22161;DHT22;49035;48.812;11.762;2022-08-25T06:57:08;22.60;99.90
22161;DHT22;49035;48.812;11.762;2022-08-25T06:59:35;22.30;99.90
22161;DHT22;49035;48.812;11.762;2022-08-25T07:02:02;22.60;99.90
22161;DHT22;49035;48.812;11.762;2022-08-25T07:04:28;22.60;99.90
22161;DHT22;49035;48.812;11.762;2022-08-25T07:06:54;23.50;99.90
22161;DHT22;49035;48.812;11.762;2022-08-25T07:09:20;23.50;99.90
22161;DHT22;49035;48.812;11.762;2022-08-25T07:11:46;23.50;99.90
22161;DHT22;49035;48.812;11.762;2022-08-25T07:14:14;24.40;99.90
22161;DHT22;49035;48.812;11.762;2022-08-25T07:16:41;24.60;99.90
22161;DHT22;49035;48.812;11.762;2022-08-25T07:19:08;24.60;99.90
22161;DHT22;49035;48.812;11.762;2022-08-25T07:21:35;24.40;99.90
22161;DHT22;49035;48.812;11.762;2022-08-25T07:24:05;24.50;99.90
22161;DHT22;49035;48.812;11.762;2022-08-25T07:26:32;24.70;99.90
22161;DHT22;49035;48.812;11.762;2022-08-25T07:29:08;25.10;99.90
22161;DHT22;49035;48.812;11.762;2022-08-25T07:31:34;25.20;99.90
22161;DHT22;49035;48.812;11.762;2022-08-25T07:33:59;25.30;99.90
22161;DHT22;49035;48.812;11.762;2022-08-25T07:36:44;25.20;99.90
22161;DHT22;49035;48.812;11.762;2022-08-25T07:39:10;24.90;99.90
22161;DHT22;49035;48.812;11.762;2022-08-25T07:41:38;24.90;99.90
22161;DHT22;49035;48.812;11.762;2022-08-25T07:44:05;25.00;99.90
22161;DHT22;49035;48.812;11.762;2022-08-25T07:46:30;24.70;99.90
22161;DHT22;49035;48.812;11.762;2022-08-25T07:48:56;24.70;99.90
22161;DHT22;49035;48.812;11.762;2022-08-25T07:51:22;25.00;99.90
22161;DHT22;49035;48.812;11.762;2022-08-25T07:53:47;25.10;99.90
22161;DHT22;49035;48.812;11.762;2022-08-25T07:56:15;25.30;99.90
22161;DHT22;49035;48.812;11.762;2022-08-25T07:58:41;25.40;98.90
22161;DHT22;49035;48.812;11.762;2022-08-25T08:01:13;25.30;98.80
22161;DHT22;49035;48.812;11.762;2022-08-25T08:03:39;25.20;99.60
22161;DHT22;49035;48.812;11.762;2022-08-25T08:06:10;25.20;98.10
22161;DHT22;49035;48.812;11.762;2022-08-25T08:08:37;24.70;98.80
22161;DHT22;49035;48.812;11.762;2022-08-25T08:11:03;24.40;99.90
22161;DHT22;49035;48.812;11.762;2022-08-25T08:13:29;24.30;99.90
22161;DHT22;49035;48.812;11.762;2022-08-25T08:15:55;24.40;99.90
22161;DHT22;49035;48.812;11.762;2022-08-25T08:18:20;24.60;99.90
22161;DHT22;49035;48.812;11.762;2022-08-25T08:20:47;25.00;99.90
22161;DHT22;49035;48.812;11.762;2022-08-25T08:23:14;25.20;99.90
22161;DHT22;49035;48.812;11.762;2022-08-25T08:25:40;25.60;99.90
22161;DHT22;49035;48.812;11.762;2022-08-25T08:28:05;25.80;98.90
22161;DHT22;49035;48.812;11.762;2022-08-25T08:30:31;26.10;98.00
22161;DHT22;49035;48.812;11.762;2022-08-25T08:32:57;26.20;96.60
22161;DHT22;49035;48.812;11.762;2022-08-25T08:35:22;26.10;97.30
22161;DHT22;49035;48.812;11.762;2022-08-25T08:37:48;26.30;97.00
22161;DHT22;49035;48.812;11.762;2022-08-25T08:40:17;26.50;95.50
22161;DHT22;49035;48.812;11.762;2022-08-25T08:43:02;26.60;96.10
22161;DHT22;49035;48.812;11.762;2022-08-25T08:45:37;26.80;93.70
22161;DHT22;49035;48.812;11.762;2022-08-25T08:51:23;27.10;93.80
22161;DHT22;49035;48.812;11.762;2022-08-25T08:53:55;26.60;93.90
22161;DHT22;49035;48.812;11.762;2022-08-25T08:56:41;26.50;95.10
22161;DHT22;49035;48.812;11.762;2022-08-25T08:59:23;26.50;95.60
22161;DHT22;49035;48.812;11.762;2022-08-25T09:01:59;26.80;96.90
22161;DHT22;49035;48.812;11.762;2022-08-25T09:07:05;27.70;93.90
22161;DHT22;49035;48.812;11.762;2022-08-25T09:09:35;28.00;91.30
22161;DHT22;49035;48.812;11.762;2022-08-25T09:17:49;28.50;88.60
22161;DHT22;49035;48.812;11.762;2022-08-25T09:25:44;28.40;86.00
22161;DHT22;49035;48.812;11.762;2022-08-25T09:28:18;28.60;87.30
22161;DHT22;49035;48.812;11.762;2022-08-25T09:31:06;28.50;85.10
22161;DHT22;49035;48.812;11.762;2022-08-25T09:33:34;28.10;85.00
22161;DHT22;49035;48.812;11.762;2022-08-25T09:36:00;27.90;86.50
22161;DHT22;49035;48.812;11.762;2022-08-25T09:38:27;28.00;85.00
22161;DHT22;49035;48.812;11.762;2022-08-25T09:40:57;28.00;84.70
22161;DHT22;49035;48.812;11.762;2022-08-25T09:46:13;28.50;87.20
22161;DHT22;49035;48.812;11.762;2022-08-25T09:49:11;28.80;81.10
22161;DHT22;49035;48.812;11.762;2022-08-25T09:51:38;28.60;84.00
22161;DHT22;49035;48.812;11.762;2022-08-25T09:59:27;27.70;90.10
22161;DHT22;49035;48.812;11.762;2022-08-25T10:01:55;27.70;87.80
22161;DHT22;49035;48.812;11.762;2022-08-25T10:04:29;27.90;85.90
22161;DHT22;49035;48.812;11.762;2022-08-25T10:07:00;27.90;87.20
22161;DHT22;49035;48.812;11.762;2022-08-25T10:09:59;27.90;86.20
22161;DHT22;49035;48.812;11.762;2022-08-25T10:12:39;28.10;84.10
22161;DHT22;49035;48.812;11.762;2022-08-25T10:15:31;27.90;82.60
22161;DHT22;49035;48.812;11.762;2022-08-25T10:21:16;28.70;82.60
22161;DHT22;49035;48.812;11.762;2022-08-25T10:23:49;29.40;78.90
22161;DHT22;49035;48.812;11.762;2022-08-25T10:26:27;29.60;79.60
22161;DHT22;49035;48.812;11.762;2022-08-25T10:32:04;30.10;76.50
22161;DHT22;49035;48.812;11.762;2022-08-25T10:40:15;28.20;83.90
22161;DHT22;49035;48.812;11.762;2022-08-25T10:43:06;28.40;82.80
22161;DHT22;49035;48.812;11.762;2022-08-25T10:45:47;28.60;78.00
22161;DHT22;49035;48.812;11.762;2022-08-25T10:50:57;29.00;78.00
22161;DHT22;49035;48.812;11.762;2022-08-25T11:09:37;29.30;75.10
22161;DHT22;49035;48.812;11.762;2022-08-25T11:12:14;29.00;77.20
22161;DHT22;49035;48.812;11.762;2022-08-25T11:15:04;28.70;79.20
22161;DHT22;49035;48.812;11.762;2022-08-25T11:17:41;29.20;75.80
22161;DHT22;49035;48.812;11.762;2022-08-25T11:20:11;29.60;79.40
22161;DHT22;49035;48.812;11.762;2022-08-25T11:22:45;30.00;73.70
22161;DHT22;49035;48.812;11.762;2022-08-25T11:25:17;30.50;73.70
22161;DHT22;49035;48.812;11.762;2022-08-25T11:30:25;30.20;73.70
22161;DHT22;49035;48.812;11.762;2022-08-25T11:32:52;30.40;72.10
22161;DHT22;49035;48.812;11.762;2022-08-25T11:35:36;30.30;72.70
22161;DHT22;49035;48.812;11.762;2022-08-25T11:46:55;30.60;72.70
22161;DHT22;49035;48.812;11.762;2022-08-25T11:49:50;31.00;72.50
22161;DHT22;49035;48.812;11.762;2022-08-25T11:55:13;31.80;69.30
22161;DHT22;49035;48.812;11.762;2022-08-25T11:57:42;32.00;67.30
22161;DHT22;49035;48.812;11.762;2022-08-25T12:00:13;31.60;69.10
22161;DHT22;49035;48.812;11.762;2022-08-25T12:02:45;30.70;69.70
22161;DHT22;49035;48.812;11.762;2022-08-25T12:10:22;30.90;68.90
22161;DHT22;49035;48.812;11.762;2022-08-25T12:13:01;31.30;70.10
22161;DHT22;49035;48.812;11.762;2022-08-25T12:26:56;33.30;61.80
22161;DHT22;49035;48.812;11.762;2022-08-25T12:29:26;34.10;56.20
22161;DHT22;49035;48.812;11.762;2022-08-25T12:32:05;33.80;56.10
22161;DHT22;49035;48.812;11.762;2022-08-25T12:37:21;34.10;57.80
22161;DHT22;49035;48.812;11.762;2022-08-25T12:42:29;34.70;56.60
22161;DHT22;49035;48.812;11.762;2022-08-25T12:47:51;35.30;52.60
22161;DHT22;49035;48.812;11.762;2022-08-25T12:50:42;34.90;55.40
22161;DHT22;49035;48.812;11.762;2022-08-25T12:55:56;34.80;53.20
22161;DHT22;49035;48.812;11.762;2022-08-25T12:58:32;33.50;56.10
22161;DHT22;49035;48.812;11.762;2022-08-25T13:01:19;33.40;56.70
22161;DHT22;49035;48.812;11.762;2022-08-25T13:14:38;34.00;56.70
22161;DHT22;49035;48.812;11.762;2022-08-25T13:17:05;34.20;56.00
22161;DHT22;49035;48.812;11.762;2022-08-25T13:19:30;34.10;56.60
22161;DHT22;49035;48.812;11.762;2022-08-25T13:21:58;33.50;56.10
22161;DHT22;49035;48.812;11.762;2022-08-25T13:24:32;32.50;57.70
22161;DHT22;49035;48.812;11.762;2022-08-25T13:27:01;32.10;58.90
22161;DHT22;49035;48.812;11.762;2022-08-25T13:29:30;32.40;60.80
22161;DHT22;49035;48.812;11.762;2022-08-25T13:32:02;32.70;61.20
22161;DHT22;49035;48.812;11.762;2022-08-25T13:34:33;32.60;57.50
22161;DHT22;49035;48.812;11.762;2022-08-25T13:37:14;32.00;59.00
22161;DHT22;49035;48.812;11.762;2022-08-25T13:40:26;32.20;58.60
22161;DHT22;49035;48.812;11.762;2022-08-25T13:43:19;31.50;60.20
22161;DHT22;49035;48.812;11.762;2022-08-25T13:45:46;31.70;58.70
22161;DHT22;49035;48.812;11.762;2022-08-25T13:48:13;31.70;59.00
22161;DHT22;49035;48.812;11.762;2022-08-25T13:51:06;32.00;59.00
22161;DHT22;49035;48.812;11.762;2022-08-25T13:53:33;32.50;57.00
22161;DHT22;49035;48.812;11.762;2022-08-25T13:56:01;32.60;56.60
22161;DHT22;49035;48.812;11.762;2022-08-25T13:58:30;32.90;57.10
22161;DHT22;49035;48.812;11.762;2022-08-25T14:03:39;32.60;55.50
22161;DHT22;49035;48.812;11.762;2022-08-25T14:06:22;32.50;55.00
22161;DHT22;49035;48.812;11.762;2022-08-25T14:11:58;32.50;57.80
22161;DHT22;49035;48.812;11.762;2022-08-25T14:16:56;32.90;55.90
22161;DHT22;49035;48.812;11.762;2022-08-25T14:19:23;32.70;54.30
22161;DHT22;49035;48.812;11.762;2022-08-25T14:21:49;32.50;57.00
22161;DHT22;49035;48.812;11.762;2022-08-25T14:24:19;32.60;56.60
22161;DHT22;49035;48.812;11.762;2022-08-25T14:26:45;32.70;55.10
22161;DHT22;49035;48.812;11.762;2022-08-25T14:29:12;32.70;57.70
22161;DHT22;49035;48.812;11.762;2022-08-25T14:31:40;32.90;56.40
22161;DHT22;49035;48.812;11.762;2022-08-25T14:34:22;32.70;57.20
22161;DHT22;49035;48.812;11.762;2022-08-25T14:36:50;32.40;56.70
22161;DHT22;49035;48.812;11.762;2022-08-25T14:39:15;32.20;57.10
22161;DHT22;49035;48.812;11.762;2022-08-25T14:41:42;32.10;58.10
22161;DHT22;49035;48.812;11.762;2022-08-25T14:44:10;32.00;58.40
22161;DHT22;49035;48.812;11.762;2022-08-25T14:46:40;31.60;58.90
22161;DHT22;49035;48.812;11.762;2022-08-25T14:49:09;31.60;60.90
22161;DHT22;49035;48.812;11.762;2022-08-25T14:51:38;31.50;60.70
22161;DHT22;49035;48.812;11.762;2022-08-25T14:54:06;31.60;60.30
22161;DHT22;49035;48.812;11.762;2022-08-25T14:56:34;31.70;59.80
22161;DHT22;49035;48.812;11.762;2022-08-25T14:59:00;31.80;60.30
22161;DHT22;49035;48.812;11.762;2022-08-25T15:01:26;31.40;59.60
22161;DHT22;49035;48.812;11.762;2022-08-25T15:03:55;30.90;59.00
22161;DHT22;49035;48.812;11.762;2022-08-25T15:06:22;31.00;62.30
22161;DHT22;49035;48.812;11.762;2022-08-25T15:08:47;31.00;62.20
22161;DHT22;49035;48.812;11.762;2022-08-25T15:11:32;31.00;60.40
22161;DHT22;49035;48.812;11.762;2022-08-25T15:13:58;30.50;61.80
22161;DHT22;49035;48.812;11.762;2022-08-25T15:16:58;30.30;62.00
22161;DHT22;49035;48.812;11.762;2022-08-25T15:19:25;30.30;64.20
22161;DHT22;49035;48.812;11.762;2022-08-25T15:21:51;30.50;62.90
22161;DHT22;49035;48.812;11.762;2022-08-25T15:24:18;30.70;62.60
22161;DHT22;49035;48.812;11.762;2022-08-25T15:26:55;30.80;62.20
22161;DHT22;49035;48.812;11.762;2022-08-25T15:29:22;31.00;61.60
22161;DHT22;49035;48.812;11.762;2022-08-25T15:31:49;31.30;61.90
22161;DHT22;49035;48.812;11.762;2022-08-25T15:34:15;31.50;61.40
22161;DHT22;49035;48.812;11.762;2022-08-25T15:36:41;31.40;62.70
22161;DHT22;49035;48.812;11.762;2022-08-25T15:39:08;31.40;60.50
22161;DHT22;49035;48.812;11.762;2022-08-25T15:41:33;31.60;60.50
22161;DHT22;49035;48.812;11.762;2022-08-25T15:44:05;31.50;62.30
22161;DHT22;49035;48.812;11.762;2022-08-25T15:46:31;31.50;63.00
22161;DHT22;49035;48.812;11.762;2022-08-25T15:48:58;30.90;60.10
22161;DHT22;49035;48.812;11.762;2022-08-25T15:51:25;30.30;62.80
22161;DHT22;49035;48.812;11.762;2022-08-25T15:53:51;29.70;63.40
22161;DHT22;49035;48.812;11.762;2022-08-25T15:56:17;29.20;65.00
22161;DHT22;49035;48.812;11.762;2022-08-25T15:58:44;28.90;67.60
22161;DHT22;49035;48.812;11.762;2022-08-25T16:01:17;29.10;68.10
22161;DHT22;49035;48.812;11.762;2022-08-25T16:03:43;29.50;68.20
22161;DHT22;49035;48.812;11.762;2022-08-25T16:06:10;29.70;65.80
22161;DHT22;49035;48.812;11.762;2022-08-25T16:08:36;29.50;67.40
22161;DHT22;49035;48.812;11.762;2022-08-25T16:11:03;29.50;67.00
22161;DHT22;49035;48.812;11.762;2022-08-25T16:13:29;29.50;65.90
22161;DHT22;49035;48.812;11.762;2022-08-25T16:15:55;29.60;65.30
22161;DHT22;49035;48.812;11.762;2022-08-25T16:18:22;29.30;66.10
22161;DHT22;49035;48.812;11.762;2022-08-25T16:20:48;29.30;67.90
22161;DHT22;49035;48.812;11.762;2022-08-25T16:23:16;29.30;66.40
22161;DHT22;49035;48.812;11.762;2022-08-25T16:25:43;29.30;67.90
22161;DHT22;49035;48.812;11.762;2022-08-25T16:28:11;29.30;69.40
22161;DHT22;49035;48.812;11.762;2022-08-25T16:30:37;29.30;68.50
22161;DHT22;49035;48.812;11.762;2022-08-25T16:33:05;29.50;67.30
22161;DHT22;49035;48.812;11.762;2022-08-25T16:35:32;29.60;66.20
22161;DHT22;49035;48.812;11.762;2022-08-25T16:37:57;29.60;67.40
22161;DHT22;49035;48.812;11.762;2022-08-25T16:40:23;29.30;76.50
22161;DHT22;49035;48.812;11.762;2022-08-25T16:42:51;29.10;68.90
22161;DHT22;49035;48.812;11.762;2022-08-25T16:45:17;28.90;71.70
22161;DHT22;49035;48.812;11.762;2022-08-25T16:47:43;28.50;72.10
22161;DHT22;49035;48.812;11.762;2022-08-25T16:50:09;28.40;73.50
22161;DHT22;49035;48.812;11.762;2022-08-25T16:52:35;28.20;73.00
22161;DHT22;49035;48.812;11.762;2022-08-25T16:55:19;28.00;74.50
22161;DHT22;49035;48.812;11.762;2022-08-25T16:57:48;27.70;74.60
22161;DHT22;49035;48.812;11.762;2022-08-25T17:00:22;27.50;76.80
22161;DHT22;49035;48.812;11.762;2022-08-25T17:02:50;27.40;76.90
22161;DHT22;49035;48.812;11.762;2022-08-25T17:05:18;27.20;77.00
22161;DHT22;49035;48.812;11.762;2022-08-25T17:07:44;27.10;77.70
22161;DHT22;49035;48.812;11.762;2022-08-25T17:10:33;27.10;78.40
22161;DHT22;49035;48.812;11.762;2022-08-25T17:13:01;27.00;79.80
22161;DHT22;49035;48.812;11.762;2022-08-25T17:15:26;26.90;79.60
22161;DHT22;49035;48.812;11.762;2022-08-25T17:17:52;26.90;80.00
22161;DHT22;49035;48.812;11.762;2022-08-25T17:20:17;26.90;80.00
22161;DHT22;49035;48.812;11.762;2022-08-25T17:22:43;26.80;80.50
22161;DHT22;49035;48.812;11.762;2022-08-25T17:25:09;26.50;80.00